Time;durP1;ratioP1;P1;durP2;ratioP2;P2;SDS_P1;SDS_P2;PMS_P1;PMS_P2;Temp;Humidity;BMP_temperature;BMP_pressure;BME280_temperature;BME280_humidity;BME280_pressure;Samples;Min_cycle;Max_cycle;Signal;HPM_P1;HPM_P2
2023/01/24 00:00:50;;;;;;;39.58;21.95;;;1.80;87.70;;;;;;5113069;28;20065;-76
2023/01/24 00:03:15;;;;;;;45.03;25.88;;;1.80;87.70;;;;;;5094269;28;20383;-78
2023/01/24 00:05:43;;;;;;;42.10;22.80;;;1.70;88.00;;;;;;5113548;28;20028;-76
2023/01/24 00:08:12;;;;;;;40.40;23.30;;;1.70;89.00;;;;;;5095779;28;20042;-76
2023/01/24 00:10:37;;;;;;;42.67;24.40;;;1.70;88.30;;;;;;5113402;28;20088;-76
2023/01/24 00:13:03;;;;;;;39.55;22.52;;;1.70;88.30;;;;;;5113281;28;20020;-76
2023/01/24 00:15:29;;;;;;;38.15;21.20;;;1.70;88.30;;;;;;5113327;28;20050;-76
2023/01/24 00:17:55;;;;;;;27.83;16.60;;;1.70;88.30;;;;;;5112632;28;20472;-76
2023/01/24 00:20:20;;;;;;;35.95;18.67;;;1.80;88.00;;;;;;5113020;28;20493;-76
2023/01/24 00:22:46;;;;;;;36.80;21.77;;;1.80;88.00;;;;;;5112998;28;20383;-76
2023/01/24 00:25:11;;;;;;;38.13;22.48;;;1.80;87.70;;;;;;5094417;28;20384;-77
2023/01/24 00:27:37;;;;;;;46.13;24.90;;;1.80;87.70;;;;;;5112334;28;20365;-76
2023/01/24 00:30:04;;;;;;;43.58;24.90;;;1.80;87.80;;;;;;5112359;28;20020;-78
2023/01/24 00:32:30;;;;;;;43.65;25.60;;;1.70;87.90;;;;;;5112282;28;20086;-77
2023/01/24 00:34:56;;;;;;;48.33;27.65;;;1.70;88.20;;;;;;5112879;28;20051;-76
2023/01/24 00:37:21;;;;;;;47.63;26.55;;;1.70;88.50;;;;;;5112819;28;20066;-78
2023/01/24 00:39:47;;;;;;;51.47;27.23;;;1.60;88.50;;;;;;5112921;28;20028;-75
2023/01/24 00:42:12;;;;;;;47.75;26.25;;;1.60;88.70;;;;;;5094720;28;20020;-76
2023/01/24 00:44:38;;;;;;;44.42;25.38;;;1.60;88.80;;;;;;5112669;28;20050;-77
2023/01/24 00:47:04;;;;;;;44.80;26.02;;;1.60;88.90;;;;;;5115657;28;20379;-79
2023/01/24 00:49:29;;;;;;;44.53;25.27;;;1.70;89.00;;;;;;5116128;28;20426;-78
2023/01/24 00:51:55;;;;;;;46.47;25.35;;;1.70;89.00;;;;;;5116301;28;20460;-78
2023/01/24 00:54:20;;;;;;;47.80;26.13;;;1.70;89.00;;;;;;5116567;28;20460;-78
2023/01/24 00:56:46;;;;;;;51.70;26.58;;;1.70;88.80;;;;;;5115988;28;20023;-78
2023/01/24 00:59:11;;;;;;;40.70;23.17;;;1.60;88.80;;;;;;5115662;28;20019;-77
2023/01/24 01:01:37;;;;;;;41.78;23.58;;;1.60;88.90;;;;;;5115874;28;20068;-79
2023/01/24 01:04:03;;;;;;;42.60;23.85;;;1.60;88.90;;;;;;5115651;28;20487;-77
2023/01/24 01:06:28;;;;;;;42.95;22.48;;;1.70;88.90;;;;;;5115628;28;20012;-78
2023/01/24 01:08:54;;;;;;;43.00;23.50;;;1.70;88.80;;;;;;5115476;28;20030;-78
2023/01/24 01:11:20;;;;;;;43.35;22.92;;;1.70;88.70;;;;;;5115558;28;20491;-78
2023/01/24 01:13:48;;;;;;;43.50;23.77;;;1.70;88.80;;;;;;5115585;28;20027;-77
2023/01/24 01:16:17;;;;;;;38.28;21.23;;;1.70;88.50;;;;;;5114352;28;20047;-78
2023/01/24 01:18:43;;;;;;;25.65;13.65;;;1.70;88.30;;;;;;5115237;28;20043;-78
2023/01/24 01:21:14;;;;;;;22.33;12.52;;;1.80;87.90;;;;;;5115651;28;20525;-77
2023/01/24 01:23:40;;;;;;;28.88;16.60;;;1.80;87.80;;;;;;5115328;28;20028;-78
2023/01/24 01:26:09;;;;;;;33.97;19.90;;;1.90;87.60;;;;;;5115490;28;20028;-80
2023/01/24 01:28:35;;;;;;;39.70;23.02;;;1.90;87.50;;;;;;5115127;28;20073;-79
2023/01/24 01:31:01;;;;;;;46.97;24.80;;;1.90;87.50;;;;;;5115248;28;20039;-79
2023/01/24 01:33:26;;;;;;;41.10;23.30;;;1.90;87.70;;;;;;5115348;28;20430;-78
2023/01/24 01:35:52;;;;;;;40.53;23.63;;;1.80;87.80;;;;;;5115919;28;20387;-79
2023/01/24 01:38:18;;;;;;;44.38;25.23;;;1.70;87.90;;;;;;5115981;28;20019;-79
2023/01/24 01:40:44;;;;;;;46.30;24.80;;;1.70;88.10;;;;;;5115229;28;20076;-79
2023/01/24 01:43:22;;;;;;;35.55;19.33;;;1.70;88.10;;;;;;5114799;28;20115;-79
2023/01/24 01:45:50;;;;;;;39.50;20.50;;;1.70;88.20;;;;;;5114742;28;20020;-78
2023/01/24 01:48:24;;;;;;;40.60;22.05;;;1.70;88.10;;;;;;5115069;28;20058;-78
2023/01/24 01:51:04;;;;;;;44.67;24.58;;;1.70;88.10;;;;;;5115798;28;20139;-77
2023/01/24 01:53:37;;;;;;;41.75;24.23;;;1.70;88.20;;;;;;5115273;28;20016;-77
2023/01/24 01:56:12;;;;;;;46.58;24.90;;;1.70;88.30;;;;;;5115566;28;20107;-77
2023/01/24 01:58:39;;;;;;;;;;;1.80;88.30;;;;;;5115407;28;20027;-80
2023/01/24 02:01:05;;;;;;;47.15;23.95;;;1.70;88.30;;;;;;5115140;28;19904;-77
2023/01/24 02:03:39;;;;;;;38.80;23.42;;;1.70;88.30;;;;;;5115141;28;20406;-79
2023/01/24 02:06:31;;;;;;;34.47;18.92;;;1.70;88.40;;;;;;5115410;28;20015;-81
2023/01/24 02:08:58;;;;;;;43.85;23.67;;;1.70;88.40;;;;;;5083344;28;20043;-77
2023/01/24 02:11:40;;;;;;;46.35;24.80;;;1.80;88.50;;;;;;5114494;28;20107;-77
2023/01/24 02:16:54;;;;;;;42.20;23.85;;;1.60;88.50;;;;;;5114621;28;20085;-77
2023/01/24 02:19:28;;;;;;;44.17;24.35;;;1.60;88.50;;;;;;5115102;28;20051;-78
2023/01/24 02:22:01;;;;;;;38.67;23.13;;;1.60;88.60;;;;;;5114880;28;20383;-77
2023/01/24 02:24:37;;;;;;;40.13;21.92;;;1.60;88.80;;;;;;5114241;28;20047;-77
2023/01/24 02:27:03;;;;;;;36.63;20.77;;;1.70;88.90;;;;;;5114115;28;20020;-77
2023/01/24 02:29:29;;;;;;;38.53;22.60;;;1.70;88.80;;;;;;5095505;28;20028;-77
2023/01/24 02:31:57;;;;;;;44.05;23.58;;;1.70;88.70;;;;;;5113935;28;20023;-77
2023/01/24 02:34:23;;;;;;;43.80;24.30;;;1.70;88.50;;;;;;5114800;28;20500;-77
2023/01/24 02:36:56;;;;;;;39.35;22.77;;;1.70;88.60;;;;;;5114637;28;20464;-78
2023/01/24 02:39:29;;;;;;;40.45;22.83;;;1.70;88.70;;;;;;5114054;28;20042;-78
2023/01/24 02:42:00;;;;;;;43.08;23.85;;;1.70;88.70;;;;;;5113877;28;20098;-78
2023/01/24 02:44:53;;;;;;;38.13;21.90;;;1.70;88.70;;;;;;5113759;28;20115;-79
2023/01/24 02:47:19;;;;;;;39.78;22.52;;;1.60;88.60;;;;;;5114103;28;20100;-80
2023/01/24 02:49:44;;;;;;;31.80;18.60;;;1.60;88.60;;;;;;5115457;28;20076;-79
2023/01/24 02:54:54;;;;;;;35.83;19.40;;;1.60;88.50;;;;;;5120457;28;20653;-77
2023/01/24 03:00:06;;;;;;;37.63;21.00;;;1.60;88.40;;;;;;5114777;28;20031;-78
2023/01/24 03:02:32;;;;;;;39.20;21.92;;;1.60;88.50;;;;;;5114012;28;20028;-77
2023/01/24 03:04:58;;;;;;;40.28;23.15;;;1.60;88.60;;;;;;5113542;28;20030;-78
2023/01/24 03:07:23;;;;;;;36.20;20.60;;;1.60;88.80;;;;;;5114144;28;20027;-78
2023/01/24 03:09:49;;;;;;;37.40;22.80;;;1.50;89.00;;;;;;5113345;28;20023;-81
2023/01/24 03:34:29;;;;;;;38.45;21.25;;;1.50;89.60;;;;;;5114046;28;20038;-78
2023/01/24 03:36:54;;;;;;;38.40;21.20;;;1.50;89.70;;;;;;5113598;28;20092;-78
2023/01/24 03:42:05;;;;;;;38.88;22.20;;;1.50;89.80;;;;;;5112954;28;20038;-77
2023/01/24 03:44:30;;;;;;;38.28;20.77;;;1.50;90.70;;;;;;5112453;28;20396;-78
2023/01/24 03:46:56;;;;;;;42.80;22.65;;;1.50;89.80;;;;;;5112936;28;20028;-77
2023/01/24 03:54:50;;;;;;;38.88;22.13;;;1.60;89.80;;;;;;5113434;28;20495;-78
2023/01/24 03:57:15;;;;;;;38.83;22.15;;;1.50;89.60;;;;;;5113406;28;20019;-78
2023/01/24 03:59:41;;;;;;;34.60;20.60;;;1.40;89.70;;;;;;5113417;28;20027;-76
2023/01/24 04:02:06;;;;;;;40.38;22.10;;;1.40;90.20;;;;;;5113395;28;20024;-76
2023/01/24 04:05:12;;;;;;;40.38;22.20;;;1.40;90.40;;;;;;5113439;28;20046;-76
2023/01/24 04:07:17;;;;;;;37.55;21.15;;;1.30;90.50;;;;;;5113095;28;20059;-77
2023/01/24 04:09:43;;;;;;;40.45;23.20;;;1.40;90.40;;;;;;5112324;28;20063;-75
2023/01/24 04:12:08;;;;;;;43.05;23.42;;;1.40;90.30;;;;;;5112512;28;20042;-76
2023/01/24 04:14:34;;;;;;;37.00;21.77;;;1.40;90.10;;;;;;5112498;28;20027;-76
2023/01/24 04:17:00;;;;;;;40.88;21.92;;;1.40;90.00;;;;;;5112423;28;20016;-75
2023/01/24 04:19:25;;;;;;;35.90;21.02;;;1.40;90.20;;;;;;5112459;28;20492;-77
2023/01/24 04:21:51;;;;;;;43.17;22.77;;;1.50;90.20;;;;;;5115707;28;20062;-76
2023/01/24 04:24:16;;;;;;;39.25;21.08;;;1.50;90.00;;;;;;5116919;28;20110;-76
2023/01/24 04:26:42;;;;;;;34.92;19.48;;;1.50;90.70;;;;;;5116504;28;20067;-76
2023/01/24 04:29:07;;;;;;;32.45;18.35;;;1.50;89.80;;;;;;5116310;28;20023;-77
2023/01/24 04:31:33;;;;;;;24.85;13.93;;;1.50;89.60;;;;;;5116393;28;20019;-78
2023/01/24 04:33:58;;;;;;;38.55;19.15;;;1.60;88.90;;;;;;5116752;28;20152;-76
2023/01/24 04:36:24;;;;;;;31.58;18.85;;;1.60;88.50;;;;;;5098689;28;20026;-77
2023/01/24 04:38:49;;;;;;;36.60;20.00;;;1.60;88.70;;;;;;5117080;28;20383;-76
2023/01/24 04:41:15;;;;;;;32.13;17.77;;;1.60;88.90;;;;;;5117077;28;20024;-78
2023/01/24 04:43:41;;;;;;;32.53;19.10;;;1.60;88.60;;;;;;5116821;28;20122;-76
2023/01/24 04:46:06;;;;;;;35.28;20.42;;;1.60;88.80;;;;;;5116887;28;20472;-77
2023/01/24 04:48:32;;;;;;;32.00;18.27;;;1.60;88.90;;;;;;5116776;28;20357;-77
2023/01/24 04:50:59;;;;;;;27.48;16.40;;;1.50;89.00;;;;;;5116587;28;20111;-77
2023/01/24 04:53:25;;;;;;;28.58;15.13;;;1.60;89.00;;;;;;5098355;28;20027;-77
2023/01/24 04:55:50;;;;;;;26.40;14.00;;;1.60;88.60;;;;;;5115766;28;20033;-76
2023/01/24 04:58:16;;;;;;;18.02;10.93;;;1.70;88.20;;;;;;5115921;28;20024;-75
2023/01/24 05:00:41;;;;;;;19.77;11.80;;;1.70;87.80;;;;;;5115787;28;20027;-75
2023/01/24 05:03:07;;;;;;;19.30;11.95;;;1.70;87.50;;;;;;5115712;28;20024;-77
2023/01/24 05:05:33;;;;;;;15.70;9.18;;;1.80;87.20;;;;;;5116505;28;20032;-75
2023/01/24 05:07:58;;;;;;;8.57;5.47;;;1.80;87.10;;;;;;5116544;28;20474;-75
2023/01/24 05:10:24;;;;;;;11.13;5.68;;;1.90;84.70;;;;;;5116401;28;20020;-76
2023/01/24 05:12:50;;;;;;;9.80;5.40;;;2.00;83.60;;;;;;5116318;28;20016;-75
2023/01/24 05:15:17;;;;;;;8.50;5.50;;;2.10;83.40;;;;;;5115912;28;20027;-78
2023/01/24 05:17:44;;;;;;;7.53;4.80;;;2.10;83.20;;;;;;5115998;28;20042;-75
2023/01/24 05:20:10;;;;;;;8.40;5.35;;;2.20;82.60;;;;;;5116105;28;20118;-75
2023/01/24 05:22:36;;;;;;;8.85;5.20;;;2.20;81.80;;;;;;5116059;28;20107;-78
2023/01/24 05:25:01;;;;;;;8.85;5.32;;;2.30;81.90;;;;;;5115134;28;20501;-78
2023/01/24 05:27:27;;;;;;;8.35;5.78;;;2.30;82.00;;;;;;5115246;28;20034;-78
2023/01/24 05:29:52;;;;;;;9.38;6.10;;;2.30;81.90;;;;;;5115214;28;20020;-75
2023/01/24 05:32:18;;;;;;;9.20;5.60;;;2.30;81.90;;;;;;5114148;28;20460;-76
2023/01/24 05:34:44;;;;;;;12.93;6.93;;;2.30;82.00;;;;;;5115646;28;20024;-74
2023/01/24 05:37:09;;;;;;;11.60;6.10;;;2.30;82.30;;;;;;5114570;28;20080;-76
2023/01/24 05:39:35;;;;;;;9.45;6.20;;;2.30;82.30;;;;;;5115406;28;20077;-78
2023/01/24 05:42:00;;;;;;;9.18;5.95;;;2.30;82.20;;;;;;5114784;28;20048;-77
2023/01/24 05:44:26;;;;;;;9.85;5.68;;;2.30;82.30;;;;;;5113458;28;20131;-76
2023/01/24 05:46:51;;;;;;;6.78;4.60;;;2.30;82.20;;;;;;5114748;28;20062;-76
2023/01/24 05:49:17;;;;;;;14.07;7.85;;;2.30;81.80;;;;;;5115048;28;20031;-76
2023/01/24 05:51:42;;;;;;;15.40;9.18;;;2.30;81.80;;;;;;5115508;28;20028;-77
2023/01/24 05:54:08;;;;;;;13.48;8.80;;;2.30;82.30;;;;;;5114180;28;20470;-76
2023/01/24 05:56:33;;;;;;;10.50;6.82;;;2.30;82.40;;;;;;5115329;28;20024;-75
2023/01/24 05:59:01;;;;;;;8.82;5.45;;;2.30;82.20;;;;;;5115337;28;20417;-76
2023/01/24 06:01:27;;;;;;;10.38;6.65;;;2.30;82.10;;;;;;5115330;28;20015;-77
2023/01/24 06:03:53;;;;;;;11.18;6.65;;;2.30;82.20;;;;;;5096745;28;20084;-76
2023/01/24 06:06:23;;;;;;;9.02;5.97;;;2.30;82.20;;;;;;5115127;28;20476;-76
2023/01/24 06:08:50;;;;;;;11.32;5.97;;;2.30;82.30;;;;;;5114963;28;20119;-77
2023/01/24 06:11:20;;;;;;;13.20;6.50;;;2.30;82.20;;;;;;5095806;28;20016;-77
2023/01/24 06:13:46;;;;;;;9.40;5.80;;;2.30;82.30;;;;;;5114255;28;20103;-76
2023/01/24 06:16:17;;;;;;;8.43;5.55;;;2.30;82.20;;;;;;5113934;28;20103;-77
2023/01/24 06:18:43;;;;;;;9.88;5.35;;;2.30;82.10;;;;;;5095861;28;20534;-78
2023/01/24 06:21:27;;;;;;;8.98;5.78;;;2.30;82.00;;;;;;5114469;28;20105;-76
2023/01/24 06:23:53;;;;;;;10.25;6.35;;;2.40;81.60;;;;;;5114008;28;20039;-77
2023/01/24 06:26:19;;;;;;;8.60;5.85;;;2.30;82.40;;;;;;5113662;28;20024;-78
2023/01/24 06:28:45;;;;;;;9.60;5.65;;;2.30;81.80;;;;;;5113452;28;20019;-77
2023/01/24 06:31:31;;;;;;;7.68;4.97;;;2.30;82.00;;;;;;5113360;28;20368;-76
2023/01/24 06:34:34;;;;;;;7.47;5.45;;;2.40;82.70;;;;;;5121542;28;20020;-78
2023/01/24 06:37:23;;;;;;;9.20;6.20;;;2.30;82.00;;;;;;5129826;28;20467;-78
2023/01/24 06:39:51;;;;;;;7.32;5.05;;;2.30;81.90;;;;;;5114063;28;20024;-77
2023/01/24 06:42:21;;;;;;;8.55;5.50;;;2.40;82.00;;;;;;5113651;28;20031;-75
2023/01/24 06:44:47;;;;;;;8.95;5.35;;;2.40;81.80;;;;;;5113379;28;20502;-76
2023/01/24 06:47:13;;;;;;;8.52;5.47;;;2.50;81.60;;;;;;5112977;28;20023;-76
2023/01/24 06:49:39;;;;;;;7.88;5.25;;;2.40;81.30;;;;;;5113724;28;20032;-77
2023/01/24 06:52:05;;;;;;;8.38;5.30;;;2.40;81.40;;;;;;5113026;28;20027;-78
2023/01/24 06:54:32;;;;;;;9.77;6.15;;;2.40;81.50;;;;;;5112857;28;20016;-77
2023/01/24 06:56:59;;;;;;;9.50;6.15;;;2.50;81.70;;;;;;5094867;28;20137;-76
2023/01/24 06:59:24;;;;;;;7.75;5.60;;;2.40;81.70;;;;;;5113413;28;20035;-77
2023/01/24 07:01:50;;;;;;;10.57;6.18;;;2.50;81.60;;;;;;5112946;28;20015;-76
2023/01/24 07:04:16;;;;;;;9.98;5.53;;;2.40;81.50;;;;;;5113601;28;20088;-76
2023/01/24 07:06:42;;;;;;;17.20;11.07;;;2.50;81.60;;;;;;5113953;28;20028;-76
2023/01/24 07:09:08;;;;;;;26.83;15.15;;;2.50;82.00;;;;;;5095221;28;20026;-78
2023/01/24 07:11:34;;;;;;;28.38;16.50;;;2.50;82.60;;;;;;5113003;28;20366;-77
2023/01/24 07:14:00;;;;;;;29.98;17.48;;;2.40;83.20;;;;;;5112825;28;20035;-76
2023/01/24 07:16:26;;;;;;;32.53;18.33;;;2.40;83.50;;;;;;5112695;28;20032;-76
2023/01/24 07:18:52;;;;;;;28.90;17.90;;;2.30;84.20;;;;;;5112169;28;20108;-75
2023/01/24 07:21:17;;;;;;;29.20;16.80;;;2.30;84.50;;;;;;5112921;28;20047;-76
2023/01/24 07:23:45;;;;;;;30.85;18.33;;;2.30;84.50;;;;;;5113004;28;20043;-74
2023/01/24 07:26:11;;;;;;;35.60;18.55;;;2.30;84.90;;;;;;5112695;28;20066;-76
2023/01/24 07:28:40;;;;;;;30.77;17.15;;;2.30;84.90;;;;;;5112791;28;20034;-76
2023/01/24 07:31:07;;;;;;;32.20;18.65;;;2.30;85.00;;;;;;5112684;28;20034;-76
2023/01/24 07:33:33;;;;;;;29.45;17.25;;;2.30;85.00;;;;;;5112998;28;20068;-77
2023/01/24 07:35:59;;;;;;;33.15;19.13;;;2.20;85.30;;;;;;5113430;28;20028;-77
2023/01/24 07:38:25;;;;;;;28.27;14.90;;;2.20;85.50;;;;;;5095645;28;20027;-77
2023/01/24 07:40:50;;;;;;;21.13;12.23;;;2.20;85.60;;;;;;5111945;28;20031;-78
2023/01/24 07:43:18;;;;;;;28.27;15.98;;;2.20;85.30;;;;;;5112166;28;20481;-78
2023/01/24 07:45:46;;;;;;;36.50;18.88;;;2.20;85.30;;;;;;5112217;28;20028;-77
2023/01/24 07:48:12;;;;;;;37.22;21.02;;;2.20;85.50;;;;;;5112516;28;20062;-77
2023/01/24 07:50:37;;;;;;;41.15;22.90;;;2.30;85.60;;;;;;5113184;28;20112;-77
2023/01/24 07:53:03;;;;;;;37.28;22.15;;;2.20;85.70;;;;;;5113113;28;20023;-77
2023/01/24 07:55:29;;;;;;;35.30;19.27;;;2.20;86.10;;;;;;5112742;28;20023;-77
2023/01/24 07:57:59;;;;;;;21.05;12.40;;;2.20;86.10;;;;;;5113146;28;20031;-77
2023/01/24 08:00:25;;;;;;;16.48;9.35;;;2.20;86.00;;;;;;5113123;28;20107;-77
2023/01/24 08:02:51;;;;;;;17.77;9.98;;;2.20;85.50;;;;;;5112763;28;20047;-77
2023/01/24 08:05:16;;;;;;;27.63;15.45;;;2.30;85.50;;;;;;5113108;28;20020;-78
2023/01/24 08:07:42;;;;;;;24.33;13.52;;;2.40;85.10;;;;;;5112996;28;20028;-77
2023/01/24 08:10:08;;;;;;;30.27;15.75;;;2.40;85.00;;;;;;5112327;28;20468;-77
2023/01/24 08:12:33;;;;;;;26.10;15.15;;;2.50;85.10;;;;;;5112243;28;20500;-77
2023/01/24 08:14:59;;;;;;;31.13;18.10;;;2.50;84.90;;;;;;5093535;28;20155;-79
2023/01/24 08:17:25;;;;;;;33.28;18.20;;;2.50;84.80;;;;;;5112181;28;20073;-76
2023/01/24 08:19:50;;;;;;;33.63;18.85;;;2.50;84.90;;;;;;5112719;28;20539;-76
2023/01/24 08:22:16;;;;;;;36.50;19.67;;;2.50;84.90;;;;;;5112649;28;20380;-77
2023/01/24 08:24:41;;;;;;;17.33;10.27;;;2.50;85.00;;;;;;5112891;28;20038;-77
2023/01/24 08:27:07;;;;;;;22.05;13.00;;;2.50;85.50;;;;;;5112954;28;20024;-77
2023/01/24 08:29:32;;;;;;;34.20;19.35;;;2.60;84.50;;;;;;5112824;28;20024;-76
2023/01/24 08:31:58;;;;;;;36.97;21.05;;;2.60;84.70;;;;;;5112891;28;20016;-77
2023/01/24 08:34:24;;;;;;;37.70;21.83;;;2.60;84.70;;;;;;5112956;28;20028;-77
2023/01/24 08:36:50;;;;;;;40.38;23.65;;;2.50;85.10;;;;;;5094122;28;20024;-76
2023/01/24 08:39:15;;;;;;;38.33;23.17;;;2.50;85.40;;;;;;5112506;28;20042;-79
2023/01/24 08:41:43;;;;;;;46.05;24.02;;;2.40;85.70;;;;;;5110732;28;20034;-76
2023/01/24 08:44:08;;;;;;;46.70;25.25;;;2.40;85.70;;;;;;5111911;28;20035;-76
2023/01/24 08:46:34;;;;;;;41.80;22.52;;;2.30;86.40;;;;;;5111739;28;20077;-76
2023/01/24 08:49:01;;;;;;;41.78;23.42;;;2.20;86.70;;;;;;5112325;28;20027;-76
2023/01/24 08:51:27;;;;;;;40.67;22.70;;;2.20;86.70;;;;;;5100845;28;20030;-76
2023/01/24 08:53:52;;;;;;;39.63;23.08;;;2.20;86.90;;;;;;5099788;28;20020;-76
2023/01/24 08:56:18;;;;;;;39.58;21.80;;;2.20;86.90;;;;;;5114615;28;20059;-76
2023/01/24 08:58:43;;;;;;;41.63;23.02;;;2.30;87.00;;;;;;5100805;28;20032;-76
2023/01/24 09:01:10;;;;;;;36.63;22.05;;;2.30;86.70;;;;;;5091279;28;20444;-76
2023/01/24 09:03:36;;;;;;;33.65;18.80;;;2.30;86.60;;;;;;5092126;28;20119;-79
2023/01/24 09:06:03;;;;;;;42.88;15.50;;;2.40;86.00;;;;;;5092565;28;20102;-85
2023/01/24 09:08:29;;;;;;;31.77;14.73;;;2.50;88.10;;;;;;5095400;28;20356;-79
2023/01/24 09:10:57;;;;;;;30.13;16.27;;;3.30;96.00;;;;;;5095905;28;20027;-80
2023/01/24 09:13:23;;;;;;;38.08;20.67;;;3.60;95.60;;;;;;5095164;28;20017;-77
2023/01/24 09:15:48;;;;;;;33.53;20.85;;;3.80;93.20;;;;;;5095806;28;20034;-77
2023/01/24 09:18:14;;;;;;;33.25;18.30;;;3.90;88.80;;;;;;5096076;28;20190;-82
2023/01/24 09:20:39;;;;;;;28.67;17.13;;;4.20;89.20;;;;;;5098950;28;20028;-77
2023/01/24 09:23:14;;;;;;;27.95;16.88;;;4.70;86.80;;;;;;5116560;28;20117;-79
2023/01/24 09:25:40;;;;;;;25.88;15.65;;;5.00;81.00;;;;;;5098145;28;20031;-78
2023/01/24 09:28:06;;;;;;;28.48;16.88;;;5.10;79.90;;;;;;5096313;28;20028;-79
2023/01/24 09:30:33;;;;;;;28.05;16.38;;;5.20;77.60;;;;;;5095875;28;20065;-82
2023/01/24 09:33:02;;;;;;;24.60;15.10;;;5.60;75.00;;;;;;5096665;28;20020;-78
2023/01/24 09:35:27;;;;;;;23.98;15.55;;;5.90;75.20;;;;;;5077844;28;20061;-76
2023/01/24 09:37:53;;;;;;;24.60;15.07;;;6.30;73.00;;;;;;5095569;28;20596;-76
2023/01/24 09:40:23;;;;;;;23.45;14.07;;;6.50;70.60;;;;;;5077127;28;20019;-77
2023/01/24 09:43:03;;;;;;;14.48;9.45;;;6.50;70.70;;;;;;5077335;28;20026;-75
2023/01/24 09:46:04;;;;;;;10.77;7.07;;;6.50;69.20;;;;;;5095095;28;20468;-76
2023/01/24 09:48:33;;;;;;;18.92;10.63;;;6.20;68.20;;;;;;5077433;28;20479;-76
2023/01/24 09:51:05;;;;;;;18.50;10.20;;;5.70;69.00;;;;;;5095128;28;20020;-79
2023/01/24 09:53:41;;;;;;;14.95;8.70;;;5.40;70.60;;;;;;5076877;28;20105;-76
2023/01/24 09:56:26;;;;;;;10.30;5.78;;;5.00;71.60;;;;;;5095184;28;20024;-78
2023/01/24 09:59:10;;;;;;;9.45;6.03;;;4.80;72.70;;;;;;5077876;28;20201;-76
2023/01/24 10:01:40;;;;;;;10.85;6.60;;;4.60;73.00;;;;;;5096442;28;20026;-84
2023/01/24 10:04:34;;;;;;;17.88;9.73;;;4.40;73.60;;;;;;5095597;28;20028;-84
2023/01/24 10:07:27;;;;;;;18.83;10.52;;;4.30;74.70;;;;;;5094378;28;20020;-76
2023/01/24 10:10:03;;;;;;;23.52;13.65;;;4.30;75.30;;;;;;5089269;28;20096;-78
2023/01/24 10:12:47;;;;;;;37.30;20.20;;;4.20;76.10;;;;;;5094179;28;20354;-76
2023/01/24 10:15:33;;;;;;;23.05;14.15;;;4.00;77.30;;;;;;5093955;28;20024;-80
2023/01/24 10:18:26;;;;;;;18.48;11.77;;;3.90;77.90;;;;;;5094283;28;20089;-77
2023/01/24 10:21:05;;;;;;;12.52;8.13;;;3.90;78.00;;;;;;5094367;28;20112;-76
2023/01/24 10:23:35;;;;;;;10.40;6.18;;;3.90;77.70;;;;;;5094361;28;20086;-77
2023/01/24 10:26:22;;;;;;;10.98;6.72;;;3.90;77.70;;;;;;5094195;28;20016;-76
2023/01/24 10:28:54;;;;;;;13.82;9.02;;;3.90;77.50;;;;;;5076135;28;20020;-79
2023/01/24 10:31:24;;;;;;;11.23;6.85;;;4.00;77.60;;;;;;5093659;28;20484;-76
2023/01/24 10:33:57;;;;;;;17.58;10.40;;;4.00;77.20;;;;;;5094030;28;20564;-76
2023/01/24 10:36:34;;;;;;;24.80;13.80;;;3.90;77.60;;;;;;5093795;28;20013;-76
2023/01/24 10:39:00;;;;;;;27.67;16.48;;;3.90;77.90;;;;;;5075826;28;20357;-77
2023/01/24 10:41:29;;;;;;;29.08;15.82;;;3.90;78.30;;;;;;5093911;28;20050;-76
2023/01/24 10:44:18;;;;;;;26.25;16.38;;;3.90;78.90;;;;;;5093775;28;20032;-76
2023/01/24 10:47:18;;;;;;;19.60;11.85;;;3.90;79.20;;;;;;5098450;28;20050;-76
2023/01/24 10:49:53;;;;;;;13.18;7.50;;;3.80;79.00;;;;;;5103433;28;20461;-76
2023/01/24 10:52:21;;;;;;;12.23;7.60;;;3.80;79.50;;;;;;5102908;28;20024;-76
2023/01/24 10:54:58;;;;;;;17.95;9.52;;;3.80;78.30;;;;;;5107704;28;20024;-76
2023/01/24 10:57:49;;;;;;;20.00;11.70;;;3.90;78.30;;;;;;5113539;28;20495;-77
2023/01/24 11:00:22;;;;;;;20.60;12.10;;;3.90;78.40;;;;;;5110485;28;20024;-77
2023/01/24 11:02:51;;;;;;;23.42;12.13;;;3.90;78.40;;;;;;5110004;28;20022;-77
2023/01/24 11:05:18;;;;;;;26.30;14.77;;;3.90;78.40;;;;;;5095210;28;20031;-77
2023/01/24 11:07:59;;;;;;;17.27;11.23;;;3.90;78.60;;;;;;5113758;28;20515;-76
2023/01/24 11:10:36;;;;;;;23.77;13.57;;;3.90;78.70;;;;;;5093576;28;20027;-76
2023/01/24 11:13:23;;;;;;;27.33;15.93;;;3.80;78.90;;;;;;5092630;28;20024;-75
2023/01/24 11:15:53;;;;;;;30.17;17.83;;;3.80;79.10;;;;;;5093178;28;20487;-74
2023/01/24 11:18:20;;;;;;;32.55;19.40;;;3.80;79.70;;;;;;5093247;28;20086;-75
2023/01/24 11:20:47;;;;;;;27.20;16.08;;;3.60;80.20;;;;;;5074831;28;20028;-76
2023/01/24 11:23:21;;;;;;;28.17;16.55;;;3.60;80.20;;;;;;5092934;28;20020;-74
2023/01/24 11:25:57;;;;;;;29.77;17.77;;;3.60;80.30;;;;;;5092878;28;20107;-77
2023/01/24 11:28:30;;;;;;;33.20;18.45;;;3.60;80.50;;;;;;5092861;28;20031;-76
2023/01/24 11:31:00;;;;;;;31.65;18.58;;;3.50;81.20;;;;;;5092444;28;20032;-75
2023/01/24 11:33:47;;;;;;;40.58;23.25;;;3.50;81.60;;;;;;5093097;28;20210;-75
2023/01/24 11:36:31;;;;;;;33.92;19.27;;;3.40;82.10;;;;;;5092941;28;20016;-74
2023/01/24 11:39:02;;;;;;;40.92;22.55;;;3.20;82.40;;;;;;5093068;28;20499;-77
2023/01/24 11:41:47;;;;;;;33.33;20.25;;;3.20;82.90;;;;;;5092976;28;20054;-75
2023/01/24 11:44:34;;;;;;;41.13;21.23;;;3.20;82.80;;;;;;5092942;28;20476;-76
2023/01/24 11:47:18;;;;;;;36.92;20.38;;;3.30;82.90;;;;;;5092901;28;20377;-77
2023/01/24 11:50:02;;;;;;;38.17;21.10;;;3.30;82.90;;;;;;5092349;28;20041;-76
2023/01/24 11:53:00;;;;;;;33.90;19.58;;;3.20;82.70;;;;;;5092918;28;20016;-76
2023/01/24 11:55:52;;;;;;;36.25;20.58;;;3.30;82.90;;;;;;5092303;28;20494;-76
2023/01/24 11:58:36;;;;;;;37.40;20.77;;;3.20;83.30;;;;;;5074528;28;20054;-77
2023/01/24 12:01:17;;;;;;;33.30;18.75;;;3.20;83.30;;;;;;5085617;28;20027;-78
2023/01/24 12:03:45;;;;;;;29.05;16.30;;;3.30;83.20;;;;;;5095487;28;20028;-77
2023/01/24 12:06:46;;;;;;;29.08;16.25;;;3.40;82.90;;;;;;5092210;28;20028;-76
2023/01/24 12:09:17;;;;;;;22.63;13.75;;;3.40;82.60;;;;;;5091821;28;20031;-76
2023/01/24 12:12:05;;;;;;;21.25;11.93;;;3.50;82.40;;;;;;5092317;28;20434;-77
2023/01/24 12:15:02;;;;;;;15.93;9.90;;;3.60;81.80;;;;;;5092220;28;20099;-76
2023/01/24 12:17:47;;;;;;;18.13;9.45;;;3.70;80.90;;;;;;5092588;28;20035;-76
2023/01/24 12:20:33;;;;;;;80.07;42.85;;;3.70;80.40;;;;;;5092587;28;20157;-76
2023/01/24 12:23:15;;;;;;;16.30;9.27;;;3.80;79.00;;;;;;5092224;28;20380;-76
2023/01/24 12:25:45;;;;;;;13.35;7.38;;;3.80;78.20;;;;;;5092728;28;20047;-77
2023/01/24 12:28:16;;;;;;;17.55;10.90;;;3.90;78.10;;;;;;5092266;28;20518;-76
2023/01/24 12:30:47;;;;;;;28.52;16.23;;;3.90;78.30;;;;;;5092328;28;20163;-75
2023/01/24 12:33:40;;;;;;;29.70;16.08;;;3.90;79.10;;;;;;5074350;28;20495;-75
2023/01/24 12:36:10;;;;;;;23.17;13.23;;;3.90;79.30;;;;;;5092394;28;20059;-75
2023/01/24 12:38:42;;;;;;;14.38;9.13;;;3.90;79.40;;;;;;5092175;28;20421;-76
2023/01/24 12:41:26;;;;;;;11.23;6.88;;;3.90;79.30;;;;;;5092368;28;20073;-75
2023/01/24 12:44:29;;;;;;;10.07;6.60;;;4.00;78.70;;;;;;5096138;28;20061;-75
2023/01/24 12:47:23;;;;;;;12.25;8.05;;;4.00;78.50;;;;;;5096227;28;20026;-75
2023/01/24 12:49:55;;;;;;;14.68;7.47;;;4.00;78.30;;;;;;5095972;28;20093;-76
2023/01/24 12:52:49;;;;;;;8.75;6.10;;;4.10;78.30;;;;;;5096028;28;20028;-77
2023/01/24 12:55:25;;;;;;;10.23;6.45;;;4.00;78.00;;;;;;5096291;28;20068;-76
2023/01/24 12:58:02;;;;;;;9.07;6.38;;;4.10;77.10;;;;;;5077697;28;20027;-76
2023/01/24 13:00:58;;;;;;;9.25;5.90;;;4.00;77.10;;;;;;5096202;28;20042;-77
2023/01/24 13:03:56;;;;;;;11.15;6.18;;;4.00;77.00;;;;;;5077618;28;20089;-78
2023/01/24 13:06:34;;;;;;;11.80;7.20;;;4.00;77.10;;;;;;5096155;28;20036;-78
2023/01/24 13:09:18;;;;;;;12.60;6.43;;;4.00;77.10;;;;;;5095991;28;20028;-77
2023/01/24 13:11:46;;;;;;;8.77;5.65;;;4.00;77.30;;;;;;5096083;28;20020;-78
2023/01/24 13:17:19;;;;;;;;;;;4.00;77.50;;;;;;5101166;22;20082;-83
2023/01/24 13:19:47;;;;;;;10.82;6.68;;;4.00;77.60;;;;;;5072681;28;19904;-82
2023/01/24 13:22:34;;;;;;;9.70;6.70;;;4.00;77.50;;;;;;5095125;28;20036;-83
2023/01/24 13:25:06;;;;;;;19.02;11.98;;;4.00;77.50;;;;;;5077245;28;20123;-77
2023/01/24 13:27:48;;;;;;;23.55;15.43;;;4.00;78.50;;;;;;5094612;28;20032;-77
2023/01/24 13:30:27;;;;;;;25.98;16.08;;;3.90;78.80;;;;;;5076651;28;20062;-76
2023/01/24 13:32:57;;;;;;;28.60;15.35;;;3.90;79.10;;;;;;5095521;28;20031;-77
2023/01/24 13:35:25;;;;;;;34.10;17.52;;;3.90;79.40;;;;;;5076784;28;20115;-77
2023/01/24 13:38:01;;;;;;;31.02;17.48;;;3.90;80.00;;;;;;5095339;28;20028;-77
2023/01/24 13:40:30;;;;;;;27.98;16.17;;;3.80;80.60;;;;;;5095661;28;20146;-76